Time;durP1;ratioP1;P1;durP2;ratioP2;P2;SDS_P1;SDS_P2;PMS_P1;PMS_P2;Temp;Humidity;BMP_temperature;BMP_pressure;BME280_temperature;BME280_humidity;BME280_pressure;Samples;Min_cycle;Max_cycle;Signal;HPM_P1;HPM_P2
2023/07/27 00:00:27;;;;;;;7.47;4.13;;;;;;;;;;5035652;28;20033;-76
2023/07/27 00:02:52;;;;;;;8.00;3.63;;;;;;;;;;5034223;28;20607;-76
2023/07/27 00:05:18;;;;;;;5.45;3.38;;;;;;;;;;5035593;28;20025;-76
2023/07/27 00:07:43;;;;;;;6.13;3.47;;;;;;;;;;5035306;28;20087;-75
2023/07/27 00:10:08;;;;;;;6.45;3.42;;;;;;;;;;5035449;28;20104;-76
2023/07/27 00:12:34;;;;;;;6.05;3.42;;;;;;;;;;5035002;28;20041;-76
2023/07/27 00:14:59;;;;;;;5.90;3.70;;;;;;;;;;5034325;28;20028;-76
2023/07/27 00:17:24;;;;;;;5.88;3.50;;;;;;;;;;5034043;28;20374;-75
2023/07/27 00:19:50;;;;;;;6.68;3.92;;;;;;;;;;5035299;28;20116;-76
2023/07/27 00:22:15;;;;;;;6.50;3.20;;;;;;;;;;5034402;28;20428;-76
2023/07/27 00:24:41;;;;;;;6.00;3.40;;;;;;;;;;5035309;28;20018;-76
2023/07/27 00:27:06;;;;;;;5.10;3.25;;;;;;;;;;5035092;28;20392;-76
2023/07/27 00:29:31;;;;;;;4.63;2.72;;;;;;;;;;5034789;28;20025;-75
2023/07/27 00:31:57;;;;;;;5.95;2.50;;;;;;;;;;5033507;28;20025;-76
2023/07/27 00:34:22;;;;;;;5.65;2.90;;;;;;;;;;5035103;28;20108;-76
2023/07/27 00:36:47;;;;;;;4.13;2.40;;;;;;;;;;5035200;28;20076;-76
2023/07/27 00:39:13;;;;;;;4.63;2.58;;;;;;;;;;5032443;28;20112;-75
2023/07/27 00:41:42;;;;;;;6.40;2.70;;;;;;;;;;5033405;28;20032;-75
2023/07/27 00:44:08;;;;;;;4.18;2.50;;;;;;;;;;5034957;28;20049;-76
2023/07/27 00:46:36;;;;;;;4.25;2.40;;;;;;;;;;5032706;28;20057;-76
2023/07/27 00:49:02;;;;;;;4.20;2.65;;;;;;;;;;5033563;28;20060;-76
2023/07/27 00:51:34;;;;;;;3.90;2.10;;;;;;;;;;5034723;28;20536;-76
2023/07/27 00:53:59;;;;;;;4.55;2.35;;;;;;;;;;5033374;28;20409;-76
2023/07/27 00:56:25;;;;;;;4.78;2.65;;;;;;;;;;5033469;28;20036;-76
2023/07/27 00:58:51;;;;;;;5.07;2.17;;;;;;;;;;5034426;28;20028;-76
2023/07/27 01:01:17;;;;;;;4.32;2.00;;;;;;;;;;5034644;28;20018;-76
2023/07/27 01:03:43;;;;;;;4.30;2.10;;;;;;;;;;5032873;28;20477;-76
2023/07/27 01:06:08;;;;;;;4.72;2.08;;;;;;;;;;5032887;28;20025;-76
2023/07/27 01:08:33;;;;;;;4.75;2.17;;;;;;;;;;5033069;28;20033;-76
2023/07/27 01:11:07;;;;;;;4.07;1.90;;;;;;;;;;5016712;28;20017;-75
2023/07/27 01:13:40;;;;;;;2.80;1.85;;;;;;;;;;5034909;28;20040;-76
2023/07/27 01:16:14;;;;;;;3.70;1.90;;;;;;;;;;5034263;28;20033;-75
2023/07/27 01:19:03;;;;;;;3.53;1.70;;;;;;;;;;5032873;28;20083;-76
2023/07/27 01:21:36;;;;;;;3.70;2.00;;;;;;;;;;5031988;28;20029;-76
2023/07/27 01:24:34;;;;;;;4.35;2.22;;;;;;;;;;5033855;28;20026;-76
2023/07/27 01:27:15;;;;;;;3.50;2.05;;;;;;;;;;5025306;28;20116;-76
2023/07/27 01:29:59;;;;;;;3.33;1.90;;;;;;;;;;5032051;28;20066;-76
2023/07/27 01:32:30;;;;;;;3.95;2.17;;;;;;;;;;5028278;28;20508;-76
2023/07/27 01:34:57;;;;;;;3.42;2.10;;;;;;;;;;5032636;28;20431;-77
2023/07/27 01:37:26;;;;;;;3.47;2.05;;;;;;;;;;5028138;28;20018;-75
2023/07/27 01:39:53;;;;;;;4.40;2.28;;;;;;;;;;5032988;28;20032;-76
2023/07/27 01:42:19;;;;;;;4.10;2.38;;;;;;;;;;5033625;28;20038;-76
2023/07/27 01:44:45;;;;;;;3.83;2.40;;;;;;;;;;5033854;28;20482;-76
2023/07/27 01:47:11;;;;;;;4.53;2.22;;;;;;;;;;5032276;28;20028;-76
2023/07/27 01:49:39;;;;;;;5.30;2.47;;;;;;;;;;5032050;28;20540;-76
2023/07/27 01:52:06;;;;;;;5.03;2.55;;;;;;;;;;5033526;28;20032;-76
2023/07/27 01:54:34;;;;;;;5.78;3.13;;;;;;;;;;5028154;28;20133;-77
2023/07/27 01:57:01;;;;;;;5.35;3.30;;;;;;;;;;5036543;28;20466;-77
2023/07/27 01:59:28;;;;;;;4.07;2.80;;;;;;;;;;5032368;28;20024;-76
2023/07/27 02:01:54;;;;;;;6.47;3.28;;;;;;;;;;5032100;28;20523;-77
2023/07/27 02:04:20;;;;;;;5.20;3.20;;;;;;;;;;5033212;28;20029;-77
2023/07/27 02:06:49;;;;;;;5.07;3.10;;;;;;;;;;5032351;28;20108;-77
2023/07/27 02:09:14;;;;;;;7.75;3.80;;;;;;;;;;5033302;28;20053;-78
2023/07/27 02:11:42;;;;;;;5.80;3.90;;;;;;;;;;5029677;28;20049;-77
2023/07/27 02:14:26;;;;;;;5.82;4.05;;;;;;;;;;5031837;28;20125;-76
2023/07/27 02:17:00;;;;;;;5.55;3.67;;;;;;;;;;5032785;28;20047;-77
2023/07/27 02:19:32;;;;;;;7.18;4.50;;;;;;;;;;5031543;28;20398;-77
2023/07/27 02:21:59;;;;;;;6.32;4.30;;;;;;;;;;5033228;28;20492;-77
2023/07/27 02:24:24;;;;;;;7.60;4.45;;;;;;;;;;5031656;28;20464;-77
2023/07/27 02:26:50;;;;;;;6.63;4.13;;;;;;;;;;5032972;28;20036;-77
2023/07/27 02:29:16;;;;;;;7.20;4.10;;;;;;;;;;5031374;28;20021;-78
2023/07/27 02:31:42;;;;;;;6.57;4.70;;;;;;;;;;5031474;28;20412;-76
2023/07/27 02:34:07;;;;;;;6.10;4.25;;;;;;;;;;5031627;28;20029;-77
2023/07/27 02:36:32;;;;;;;8.20;5.18;;;;;;;;;;5032729;28;20112;-77
2023/07/27 02:38:58;;;;;;;7.82;5.00;;;;;;;;;;5014341;28;20035;-77
2023/07/27 02:41:23;;;;;;;7.90;4.45;;;;;;;;;;5031495;28;20029;-77
2023/07/27 02:43:48;;;;;;;7.25;4.93;;;;;;;;;;5031179;28;20021;-78
2023/07/27 02:46:14;;;;;;;6.80;4.70;;;;;;;;;;5028229;28;20485;-77
2023/07/27 02:48:39;;;;;;;7.90;5.32;;;;;;;;;;5032778;28;20079;-77
2023/07/27 02:51:05;;;;;;;7.45;4.90;;;;;;;;;;5031448;28;20036;-77
2023/07/27 02:53:30;;;;;;;9.20;5.50;;;;;;;;;;5032351;28;20033;-78
2023/07/27 02:56:00;;;;;;;7.15;4.85;;;;;;;;;;5032583;28;20017;-77
2023/07/27 02:58:26;;;;;;;7.63;5.35;;;;;;;;;;5026449;28;20028;-77
2023/07/27 03:01:00;;;;;;;8.07;5.25;;;;;;;;;;5032013;28;20025;-77
2023/07/27 03:03:26;;;;;;;9.77;5.68;;;;;;;;;;5026309;28;20033;-77
2023/07/27 03:06:02;;;;;;;7.68;5.25;;;;;;;;;;5032188;28;20576;-77
2023/07/27 03:08:29;;;;;;;7.80;4.93;;;;;;;;;;5027789;28;20018;-77
2023/07/27 03:10:59;;;;;;;9.43;6.05;;;;;;;;;;5027233;28;20029;-77
2023/07/27 03:13:24;;;;;;;10.82;5.65;;;;;;;;;;5032190;28;20389;-77
2023/07/27 03:15:50;;;;;;;7.35;5.22;;;;;;;;;;5031124;28;20032;-77
2023/07/27 03:18:17;;;;;;;7.90;5.55;;;;;;;;;;5032185;28;20107;-78
2023/07/27 03:20:43;;;;;;;8.55;5.80;;;;;;;;;;5030001;28;20458;-78
2023/07/27 03:23:09;;;;;;;8.52;5.07;;;;;;;;;;5031171;28;20028;-78
2023/07/27 03:25:36;;;;;;;7.47;5.30;;;;;;;;;;5032123;28;20068;-78
2023/07/27 03:28:03;;;;;;;9.35;5.30;;;;;;;;;;5030789;28;20029;-78
2023/07/27 03:30:28;;;;;;;8.88;5.50;;;;;;;;;;5030786;28;20397;-78
2023/07/27 03:32:54;;;;;;;8.98;5.45;;;;;;;;;;5030806;28;20021;-78
2023/07/27 03:35:20;;;;;;;8.07;4.80;;;;;;;;;;5032141;28;20033;-77
2023/07/27 03:37:45;;;;;;;6.70;4.32;;;;;;;;;;5029485;28;20029;-78
2023/07/27 03:40:10;;;;;;;8.98;4.88;;;;;;;;;;5030888;28;20025;-77
2023/07/27 03:42:36;;;;;;;8.60;4.50;;;;;;;;;;5031876;28;20018;-77
2023/07/27 03:45:01;;;;;;;6.65;4.40;;;;;;;;;;5032175;28;20017;-77
2023/07/27 03:47:27;;;;;;;6.95;4.65;;;;;;;;;;5030629;28;20035;-77
2023/07/27 03:49:52;;;;;;;6.57;4.53;;;;;;;;;;5031824;28;20021;-77
2023/07/27 03:52:17;;;;;;;6.53;4.40;;;;;;;;;;5031987;28;20458;-78
2023/07/27 03:54:43;;;;;;;5.97;4.00;;;;;;;;;;5031170;28;20105;-77
2023/07/27 03:57:08;;;;;;;8.13;4.63;;;;;;;;;;5031764;28;20029;-77
2023/07/27 03:59:33;;;;;;;6.13;4.15;;;;;;;;;;5030730;28;20397;-77
2023/07/27 04:01:59;;;;;;;6.80;3.70;;;;;;;;;;5031741;28;20029;-77
2023/07/27 04:04:24;;;;;;;6.22;3.72;;;;;;;;;;5030563;28;20032;-77
2023/07/27 04:06:50;;;;;;;7.75;4.38;;;;;;;;;;5031364;28;20028;-77
2023/07/27 04:09:15;;;;;;;5.90;3.40;;;;;;;;;;5030347;28;20102;-77
2023/07/27 04:11:40;;;;;;;6.78;3.90;;;;;;;;;;5031211;28;20425;-78
2023/07/27 04:14:06;;;;;;;8.27;4.30;;;;;;;;;;5033523;28;20025;-77
2023/07/27 04:16:31;;;;;;;7.20;4.25;;;;;;;;;;5035557;28;20495;-77
2023/07/27 04:18:56;;;;;;;6.43;4.00;;;;;;;;;;5034029;28;20025;-77
2023/07/27 04:21:22;;;;;;;6.72;3.90;;;;;;;;;;5034223;28;20111;-77
2023/07/27 04:23:48;;;;;;;6.47;3.90;;;;;;;;;;5034159;28;20032;-77
2023/07/27 04:26:13;;;;;;;7.25;3.80;;;;;;;;;;5033975;28;20028;-77
2023/07/27 04:28:39;;;;;;;6.20;3.53;;;;;;;;;;5033498;28;20029;-77
2023/07/27 04:31:04;;;;;;;6.43;3.55;;;;;;;;;;5034968;28;20105;-77
2023/07/27 04:33:30;;;;;;;5.68;3.80;;;;;;;;;;5035249;28;20079;-77
2023/07/27 04:35:59;;;;;;;6.05;3.50;;;;;;;;;;5034845;28;20116;-77
2023/07/27 04:38:25;;;;;;;6.57;4.10;;;;;;;;;;5030737;28;20029;-77
2023/07/27 04:40:51;;;;;;;4.90;3.35;;;;;;;;;;5030299;28;20040;-77
2023/07/27 04:43:17;;;;;;;5.50;3.67;;;;;;;;;;5037089;28;20444;-77
2023/07/27 04:45:42;;;;;;;4.13;2.95;;;;;;;;;;5030983;28;20021;-77
2023/07/27 04:48:08;;;;;;;4.57;2.95;;;;;;;;;;5034802;28;20032;-77
2023/07/27 04:50:34;;;;;;;6.40;3.22;;;;;;;;;;5034844;28;20045;-77
2023/07/27 04:52:59;;;;;;;4.95;2.95;;;;;;;;;;5033462;28;20079;-77
2023/07/27 04:55:24;;;;;;;7.03;3.30;;;;;;;;;;5033222;28;20044;-78
2023/07/27 04:57:50;;;;;;;5.57;2.80;;;;;;;;;;5034505;28;20029;-78
2023/07/27 05:00:15;;;;;;;4.97;2.72;;;;;;;;;;5034748;28;20358;-78
2023/07/27 05:02:41;;;;;;;4.47;3.03;;;;;;;;;;5028390;28;20032;-77
2023/07/27 05:05:06;;;;;;;4.53;2.80;;;;;;;;;;5033177;28;20030;-77
2023/07/27 05:07:32;;;;;;;4.68;2.80;;;;;;;;;;5032919;28;20400;-77
2023/07/27 05:09:57;;;;;;;4.93;2.80;;;;;;;;;;5034337;28;20036;-77
2023/07/27 05:12:22;;;;;;;5.13;2.88;;;;;;;;;;5034529;28;20025;-78
2023/07/27 05:14:48;;;;;;;4.13;2.60;;;;;;;;;;5034338;28;20036;-77
2023/07/27 05:17:13;;;;;;;4.60;2.85;;;;;;;;;;5034426;28;20026;-77
2023/07/27 05:19:39;;;;;;;4.20;2.50;;;;;;;;;;5032818;28;20025;-77
2023/07/27 05:22:04;;;;;;;4.35;2.60;;;;;;;;;;5034239;28;20026;-77
2023/07/27 05:24:30;;;;;;;3.50;2.00;;;;;;;;;;5033519;28;20048;-78
2023/07/27 05:26:55;;;;;;;3.63;2.25;;;;;;;;;;5033123;28;20053;-77
2023/07/27 05:29:20;;;;;;;3.85;2.55;;;;;;;;;;5033844;28;20358;-77
2023/07/27 05:31:47;;;;;;;3.95;2.22;;;;;;;;;;5033763;28;20032;-78
2023/07/27 05:34:12;;;;;;;3.88;1.80;;;;;;;;;;5030942;28;20017;-77
2023/07/27 05:36:38;;;;;;;3.42;2.25;;;;;;;;;;5029058;28;20036;-77
2023/07/27 05:39:03;;;;;;;3.67;2.45;;;;;;;;;;5031756;28;20035;-77
2023/07/27 05:41:30;;;;;;;3.47;1.90;;;;;;;;;;5033674;28;20167;-78
2023/07/27 05:43:55;;;;;;;4.22;2.10;;;;;;;;;;5033928;28;20099;-77
2023/07/27 05:46:20;;;;;;;3.78;2.42;;;;;;;;;;5033598;28;20115;-77
2023/07/27 05:48:46;;;;;;;2.95;2.15;;;;;;;;;;5032262;28;20481;-77
2023/07/27 05:51:11;;;;;;;3.28;2.08;;;;;;;;;;5033601;28;20022;-78
2023/07/27 05:53:37;;;;;;;3.13;1.80;;;;;;;;;;5029786;28;20095;-77
2023/07/27 05:56:02;;;;;;;3.00;1.67;;;;;;;;;;5033650;28;20319;-77
2023/07/27 05:58:28;;;;;;;2.78;1.80;;;;;;;;;;5032122;28;20396;-77
2023/07/27 06:01:01;;;;;;;3.28;1.70;;;;;;;;;;5033360;28;20029;-77
2023/07/27 06:03:28;;;;;;;3.03;1.88;;;;;;;;;;5031825;28;20032;-77
2023/07/27 06:05:54;;;;;;;2.85;1.70;;;;;;;;;;5033307;28;20386;-77
2023/07/27 06:08:19;;;;;;;2.42;1.67;;;;;;;;;;5032078;28;20029;-77
2023/07/27 06:10:44;;;;;;;2.25;1.40;;;;;;;;;;5026831;28;20095;-77
2023/07/27 06:13:10;;;;;;;2.58;1.70;;;;;;;;;;5033179;28;20036;-77
2023/07/27 06:15:35;;;;;;;2.55;1.42;;;;;;;;;;5033547;28;20431;-77
2023/07/27 06:18:00;;;;;;;2.70;1.70;;;;;;;;;;5033367;28;20105;-77
2023/07/27 06:20:26;;;;;;;2.85;1.40;;;;;;;;;;5031662;28;20029;-77
2023/07/27 06:22:51;;;;;;;1.90;1.30;;;;;;;;;;5033178;28;20096;-77
2023/07/27 06:25:16;;;;;;;1.98;1.45;;;;;;;;;;5032864;28;20071;-78
2023/07/27 06:27:42;;;;;;;2.75;1.70;;;;;;;;;;5028914;28;20034;-77
2023/07/27 06:30:08;;;;;;;2.08;1.33;;;;;;;;;;5032876;28;20075;-77
2023/07/27 06:32:34;;;;;;;2.00;1.27;;;;;;;;;;5032663;28;20041;-77
2023/07/27 06:34:59;;;;;;;2.08;1.30;;;;;;;;;;5031573;28;20044;-77
2023/07/27 06:37:25;;;;;;;1.88;1.45;;;;;;;;;;5028670;28;20079;-77
2023/07/27 06:39:50;;;;;;;2.28;1.33;;;;;;;;;;5032724;28;20083;-77
2023/07/27 06:42:15;;;;;;;2.95;1.63;;;;;;;;;;5031655;28;20029;-77
2023/07/27 06:44:41;;;;;;;2.20;1.40;;;;;;;;;;5027669;28;20099;-77
2023/07/27 06:47:06;;;;;;;2.35;1.50;;;;;;;;;;5031407;28;20028;-77
2023/07/27 06:49:32;;;;;;;13.68;1.80;;;;;;;;;;5032725;28;20753;-77
2023/07/27 06:51:57;;;;;;;4.88;1.60;;;;;;;;;;5031287;28;20028;-77
2023/07/27 06:54:22;;;;;;;2.45;1.35;;;;;;;;;;5031181;28;20048;-77
2023/07/27 06:56:48;;;;;;;2.55;1.38;;;;;;;;;;5032426;28;20025;-77
2023/07/27 06:59:13;;;;;;;2.05;1.33;;;;;;;;;;5031344;28;20108;-77
2023/07/27 07:01:38;;;;;;;2.05;1.38;;;;;;;;;;5023649;28;20032;-77
2023/07/27 07:04:05;;;;;;;2.65;1.45;;;;;;;;;;5031065;28;20167;-77
2023/07/27 07:06:31;;;;;;;2.00;1.45;;;;;;;;;;5030806;28;20455;-77
2023/07/27 07:08:57;;;;;;;1.63;1.20;;;;;;;;;;5032404;28;20108;-77
2023/07/27 07:11:23;;;;;;;2.75;1.50;;;;;;;;;;5030983;28;20048;-77
2023/07/27 07:13:48;;;;;;;1.90;1.30;;;;;;;;;;5032370;28;20485;-77
2023/07/27 07:16:13;;;;;;;1.77;1.30;;;;;;;;;;5032232;28;20028;-77
2023/07/27 07:18:39;;;;;;;5.53;1.40;;;;;;;;;;5031373;28;20689;-77
2023/07/27 07:21:04;;;;;;;2.08;1.30;;;;;;;;;;5032063;28;20017;-77
2023/07/27 07:23:30;;;;;;;2.00;1.40;;;;;;;;;;5031099;28;20121;-77
2023/07/27 07:25:56;;;;;;;2.17;1.60;;;;;;;;;;5030751;28;20104;-77
2023/07/27 07:28:21;;;;;;;2.00;1.13;;;;;;;;;;5031904;28;20111;-78
2023/07/27 07:30:47;;;;;;;2.10;1.40;;;;;;;;;;5032050;28;20391;-78
2023/07/27 07:33:12;;;;;;;1.45;1.10;;;;;;;;;;5032309;28;20025;-77
2023/07/27 07:35:40;;;;;;;1.73;1.10;;;;;;;;;;5029601;28;20477;-77
2023/07/27 07:38:06;;;;;;;2.08;1.17;;;;;;;;;;5029726;28;20412;-77
2023/07/27 07:40:32;;;;;;;1.90;1.30;;;;;;;;;;5031946;28;20029;-77
2023/07/27 07:42:57;;;;;;;1.58;1.05;;;;;;;;;;5030833;28;20076;-77
2023/07/27 07:45:23;;;;;;;1.90;1.20;;;;;;;;;;5031746;28;20022;-77
2023/07/27 07:47:48;;;;;;;1.50;1.05;;;;;;;;;;5033217;28;20378;-77
2023/07/27 07:50:13;;;;;;;1.80;1.10;;;;;;;;;;5035977;28;20158;-77
2023/07/27 07:52:39;;;;;;;2.20;1.20;;;;;;;;;;5034291;28;20108;-77
2023/07/27 07:55:06;;;;;;;1.80;1.27;;;;;;;;;;5035840;28;20021;-77
2023/07/27 07:57:32;;;;;;;2.20;1.30;;;;;;;;;;5034477;28;20021;-77
2023/07/27 07:59:58;;;;;;;2.22;1.45;;;;;;;;;;5034482;28;20464;-78
2023/07/27 08:02:23;;;;;;;1.60;1.30;;;;;;;;;;5034364;28;20504;-77
2023/07/27 08:04:49;;;;;;;1.92;1.30;;;;;;;;;;5035544;28;20096;-77
2023/07/27 08:07:14;;;;;;;2.05;1.30;;;;;;;;;;5034077;28;20091;-77
2023/07/27 08:09:39;;;;;;;2.05;1.30;;;;;;;;;;5034772;28;20021;-77
2023/07/27 08:12:06;;;;;;;3.42;1.30;;;;;;;;;;5034269;28;20124;-77
2023/07/27 08:14:31;;;;;;;1.80;1.20;;;;;;;;;;5035556;28;20029;-77
2023/07/27 08:16:57;;;;;;;2.53;1.40;;;;;;;;;;5034073;28;20366;-77
2023/07/27 08:19:22;;;;;;;1.90;1.20;;;;;;;;;;5034109;28;20056;-77
2023/07/27 08:21:47;;;;;;;2.00;1.25;;;;;;;;;;5033976;28;20061;-77
2023/07/27 08:24:13;;;;;;;2.83;1.60;;;;;;;;;;5034200;28;20496;-77
2023/07/27 08:26:38;;;;;;;2.08;1.25;;;;;;;;;;5033494;28;20021;-77
2023/07/27 08:29:04;;;;;;;4.30;1.40;;;;;;;;;;5035041;28;20041;-77
2023/07/27 08:31:29;;;;;;;1.92;1.23;;;;;;;;;;5033832;28;20075;-77
2023/07/27 08:33:55;;;;;;;2.47;1.20;;;;;;;;;;5035073;28;20095;-77
2023/07/27 08:36:20;;;;;;;2.80;1.40;;;;;;;;;;5033803;28;20091;-77
2023/07/27 08:38:46;;;;;;;4.00;1.77;;;;;;;;;;5034953;28;20036;-77
2023/07/27 08:41:11;;;;;;;3.65;1.45;;;;;;;;;;5031684;28;20533;-77
2023/07/27 08:43:36;;;;;;;3.33;1.38;;;;;;;;;;5032211;28;20081;-77
2023/07/27 08:46:03;;;;;;;3.33;1.90;;;;;;;;;;5027802;28;20060;-77
2023/07/27 08:48:29;;;;;;;4.38;2.00;;;;;;;;;;5033498;28;20477;-77
2023/07/27 08:50:57;;;;;;;3.42;2.35;;;;;;;;;;5028821;28;20501;-78
2023/07/27 08:53:22;;;;;;;5.32;2.83;;;;;;;;;;5034734;28;20492;-78
2023/07/27 08:55:48;;;;;;;7.10;2.90;;;;;;;;;;5034694;28;20022;-77
2023/07/27 08:58:14;;;;;;;5.03;2.85;;;;;;;;;;5033450;28;20109;-77
2023/07/27 09:00:39;;;;;;;4.65;3.25;;;;;;;;;;5027657;28;20032;-77
2023/07/27 09:03:07;;;;;;;4.38;3.40;;;;;;;;;;5033021;28;20392;-77
2023/07/27 09:06:00;;;;;;;4.55;3.38;;;;;;;;;;5033252;28;20385;-77
2023/07/27 09:08:29;;;;;;;5.37;3.60;;;;;;;;;;5028987;28;20033;-77
2023/07/27 09:11:07;;;;;;;3.95;3.38;;;;;;;;;;5033350;28;20033;-77
2023/07/27 09:13:33;;;;;;;4.30;3.60;;;;;;;;;;5033027;28;20496;-77
2023/07/27 09:16:01;;;;;;;4.03;3.20;;;;;;;;;;5031754;28;20533;-77
2023/07/27 09:18:32;;;;;;;5.03;3.35;;;;;;;;;;5033044;28;20449;-77
2023/07/27 09:20:58;;;;;;;5.85;3.40;;;;;;;;;;5034141;28;20075;-77
2023/07/27 09:23:23;;;;;;;4.70;3.42;;;;;;;;;;5033105;28;20477;-77
2023/07/27 09:25:55;;;;;;;5.13;3.40;;;;;;;;;;5032723;28;20132;-77
2023/07/27 09:28:28;;;;;;;6.13;2.75;;;;;;;;;;5034187;28;20373;-77
2023/07/27 09:30:59;;;;;;;4.93;3.00;;;;;;;;;;5033807;28;20044;-77
2023/07/27 09:33:24;;;;;;;4.45;3.08;;;;;;;;;;5029768;28;20366;-77
2023/07/27 09:35:51;;;;;;;4.78;2.63;;;;;;;;;;5032998;28;20072;-77
2023/07/27 09:38:23;;;;;;;4.00;3.20;;;;;;;;;;5032662;28;20402;-77
2023/07/27 09:40:49;;;;;;;6.80;3.58;;;;;;;;;;5033750;28;20021;-77
2023/07/27 09:43:14;;;;;;;4.03;3.00;;;;;;;;;;5032570;28;20504;-77
2023/07/27 09:45:40;;;;;;;3.67;3.20;;;;;;;;;;5032500;28;20074;-77
2023/07/27 09:48:07;;;;;;;3.88;3.10;;;;;;;;;;5032358;28;20401;-77
2023/07/27 09:50:34;;;;;;;4.05;3.08;;;;;;;;;;5032365;28;20037;-77
2023/07/27 09:53:01;;;;;;;3.95;2.67;;;;;;;;;;5025043;28;20407;-77
2023/07/27 09:55:29;;;;;;;3.47;2.60;;;;;;;;;;5033524;28;20033;-77
2023/07/27 09:57:58;;;;;;;3.70;2.30;;;;;;;;;;5033657;28;20091;-77
2023/07/27 10:00:24;;;;;;;3.47;2.40;;;;;;;;;;5036351;28;20017;-77
2023/07/27 10:02:49;;;;;;;4.15;2.55;;;;;;;;;;5034069;28;20030;-77
2023/07/27 10:05:15;;;;;;;3.55;2.33;;;;;;;;;;5033273;28;20075;-78
2023/07/27 10:07:42;;;;;;;4.45;2.47;;;;;;;;;;5026526;28;20026;-77
2023/07/27 10:10:42;;;;;;;3.63;2.55;;;;;;;;;;5031498;28;20028;-77
2023/07/27 10:13:35;;;;;;;3.45;2.60;;;;;;;;;;5033301;28;20026;-77
2023/07/27 10:16:01;;;;;;;3.38;2.47;;;;;;;;;;5018228;28;20036;-78
2023/07/27 10:18:28;;;;;;;4.57;2.60;;;;;;;;;;5033076;28;20420;-77
2023/07/27 10:21:23;;;;;;;5.25;2.60;;;;;;;;;;5033138;28;20473;-77
2023/07/27 10:24:06;;;;;;;3.38;2.50;;;;;;;;;;5031456;28;20029;-78
2023/07/27 10:26:52;;;;;;;4.47;2.50;;;;;;;;;;5029908;28;20021;-77
2023/07/27 10:29:22;;;;;;;4.28;2.38;;;;;;;;;;5031477;28;20022;-77
2023/07/27 10:32:03;;;;;;;3.40;2.65;;;;;;;;;;5032725;28;20017;-77
2023/07/27 10:34:29;;;;;;;5.32;2.75;;;;;;;;;;5031433;28;20121;-77
2023/07/27 10:36:57;;;;;;;5.55;2.75;;;;;;;;;;5029327;28;20025;-77
2023/07/27 10:39:42;;;;;;;3.47;2.42;;;;;;;;;;5032799;28;20025;-78
2023/07/27 10:42:14;;;;;;;5.45;2.67;;;;;;;;;;5029551;28;20025;-77
2023/07/27 10:44:48;;;;;;;3.67;2.40;;;;;;;;;;5032696;28;20023;-77
2023/07/27 10:47:39;;;;;;;4.20;2.83;;;;;;;;;;5033941;28;20033;-77
2023/07/27 10:50:05;;;;;;;3.53;2.78;;;;;;;;;;5024787;28;20477;-77
2023/07/27 10:52:33;;;;;;;4.28;2.70;;;;;;;;;;5031370;28;20499;-78
2023/07/27 10:55:00;;;;;;;5.00;2.58;;;;;;;;;;5031086;28;20047;-78
2023/07/27 10:57:27;;;;;;;6.32;2.70;;;;;;;;;;5031173;28;20025;-77
2023/07/27 10:59:53;;;;;;;4.57;2.40;;;;;;;;;;5029155;28;20025;-77
2023/07/27 11:02:29;;;;;;;4.95;3.03;;;;;;;;;;5032455;28;20028;-77
2023/07/27 11:05:05;;;;;;;4.10;2.13;;;;;;;;;;5064058;28;20041;-77
2023/07/27 11:07:32;;;;;;;3.15;2.17;;;;;;;;;;5030919;28;20029;-77
2023/07/27 11:09:58;;;;;;;3.13;2.40;;;;;;;;;;5031174;28;20025;-77
2023/07/27 11:12:24;;;;;;;3.33;2.25;;;;;;;;;;5032345;28;20435;-77
2023/07/27 11:14:51;;;;;;;3.22;2.40;;;;;;;;;;5030782;28;20025;-77
2023/07/27 11:17:18;;;;;;;3.70;2.38;;;;;;;;;;5027047;28;20112;-77
2023/07/27 11:19:43;;;;;;;3.63;2.50;;;;;;;;;;5030824;28;20025;-77
2023/07/27 11:22:10;;;;;;;4.38;2.55;;;;;;;;;;5033577;28;20147;-77
2023/07/27 11:24:35;;;;;;;3.55;2.60;;;;;;;;;;5037935;28;20037;-77
2023/07/27 11:27:01;;;;;;;4.28;2.90;;;;;;;;;;5037579;28;20040;-77
2023/07/27 11:29:27;;;;;;;3.78;3.08;;;;;;;;;;5020523;28;20091;-77
2023/07/27 11:31:54;;;;;;;6.07;3.10;;;;;;;;;;5037262;28;20108;-78
2023/07/27 11:34:25;;;;;;;4.07;2.50;;;;;;;;;;5033618;28;20036;-77
2023/07/27 11:36:52;;;;;;;3.63;2.55;;;;;;;;;;5037668;28;20075;-77
2023/07/27 11:39:18;;;;;;;6.32;2.30;;;;;;;;;;5037272;28;20036;-78
2023/07/27 11:41:43;;;;;;;2.78;2.08;;;;;;;;;;5038796;28;20100;-77
2023/07/27 11:44:08;;;;;;;4.07;2.05;;;;;;;;;;5038552;28;20080;-77
2023/07/27 11:46:45;;;;;;;3.22;2.53;;;;;;;;;;5037513;28;20056;-77
2023/07/27 11:49:12;;;;;;;6.47;2.90;;;;;;;;;;5036031;28;20022;-77
2023/07/27 11:51:39;;;;;;;3.75;2.90;;;;;;;;;;5037498;28;20528;-77
2023/07/27 11:54:05;;;;;;;3.85;3.30;;;;;;;;;;5038495;28;20033;-77
2023/07/27 11:56:34;;;;;;;3.28;2.80;;;;;;;;;;5037363;28;20030;-77
2023/07/27 11:58:59;;;;;;;3.42;2.95;;;;;;;;;;5037323;28;20043;-77
2023/07/27 12:01:25;;;;;;;4.53;3.05;;;;;;;;;;5038719;28;20540;-77
2023/07/27 12:03:50;;;;;;;4.50;3.20;;;;;;;;;;5038001;28;20030;-77
2023/07/27 12:06:24;;;;;;;3.97;3.33;;;;;;;;;;5037335;28;20481;-77
2023/07/27 12:08:51;;;;;;;4.10;3.30;;;;;;;;;;5038305;28;20025;-77
2023/07/27 12:11:23;;;;;;;5.00;3.25;;;;;;;;;;5037357;28;20031;-78
2023/07/27 12:13:49;;;;;;;3.75;3.20;;;;;;;;;;5037190;28;20061;-77
2023/07/27 12:16:16;;;;;;;4.45;3.00;;;;;;;;;;5037202;28;20025;-79
2023/07/27 12:18:41;;;;;;;5.20;2.80;;;;;;;;;;5038458;28;20473;-77
2023/07/27 12:21:07;;;;;;;3.10;2.63;;;;;;;;;;5036915;28;20029;-78
2023/07/27 12:23:33;;;;;;;3.17;2.60;;;;;;;;;;5036033;28;20466;-77
2023/07/27 12:25:58;;;;;;;3.33;2.63;;;;;;;;;;5037363;28;20108;-78
2023/07/27 12:28:24;;;;;;;4.97;2.60;;;;;;;;;;5038049;28;20116;-77
2023/07/27 12:30:49;;;;;;;3.10;2.25;;;;;;;;;;5036871;28;20060;-77
2023/07/27 12:33:15;;;;;;;3.60;2.20;;;;;;;;;;5037269;28;20021;-77
2023/07/27 12:35:40;;;;;;;3.10;2.33;;;;;;;;;;5033586;28;20018;-77
2023/07/27 12:38:06;;;;;;;4.63;2.35;;;;;;;;;;5035237;28;20113;-77
2023/07/27 12:40:31;;;;;;;2.90;2.42;;;;;;;;;;5029882;28;20025;-77
2023/07/27 12:42:58;;;;;;;3.30;2.45;;;;;;;;;;5033941;28;20440;-78
2023/07/27 12:45:25;;;;;;;3.03;2.38;;;;;;;;;;5033747;28;20025;-77
2023/07/27 12:47:50;;;;;;;5.93;2.65;;;;;;;;;;5034839;28;20028;-77
2023/07/27 12:50:16;;;;;;;6.78;2.55;;;;;;;;;;5034947;28;20025;-77
2023/07/27 12:52:42;;;;;;;5.80;3.00;;;;;;;;;;5033838;28;20033;-78
2023/07/27 12:55:09;;;;;;;3.40;2.40;;;;;;;;;;5034448;28;20028;-77
2023/07/27 12:57:38;;;;;;;4.65;2.70;;;;;;;;;;5034360;28;20031;-77
2023/07/27 13:00:06;;;;;;;3.25;2.38;;;;;;;;;;5029775;28;20021;-77
2023/07/27 13:02:31;;;;;;;4.07;2.20;;;;;;;;;;5039026;28;20393;-79
2023/07/27 13:04:56;;;;;;;3.03;2.30;;;;;;;;;;5034630;28;20023;-76
2023/07/27 13:07:22;;;;;;;3.22;2.30;;;;;;;;;;5034445;28;20037;-78
2023/07/27 13:09:47;;;;;;;3.20;2.42;;;;;;;;;;5033128;28;20025;-77
2023/07/27 13:12:13;;;;;;;3.47;2.47;;;;;;;;;;5034699;28;20077;-78
2023/07/27 13:14:38;;;;;;;4.93;2.30;;;;;;;;;;5031894;28;20083;-78
2023/07/27 13:17:04;;;;;;;4.60;2.15;;;;;;;;;;5034312;28;20025;-77
2023/07/27 13:19:29;;;;;;;2.65;2.00;;;;;;;;;;5034150;28;20032;-77
2023/07/27 13:21:56;;;;;;;4.18;2.08;;;;;;;;;;5033465;28;20017;-77
2023/07/27 13:24:22;;;;;;;5.45;2.35;;;;;;;;;;5034326;28;20113;-78
2023/07/27 13:26:47;;;;;;;3.20;2.20;;;;;;;;;;5033027;28;20532;-77
2023/07/27 13:29:15;;;;;;;3.10;2.05;;;;;;;;;;5032807;28;20029;-77
2023/07/27 13:31:44;;;;;;;2.92;2.05;;;;;;;;;;5032061;28;20028;-77
2023/07/27 13:34:09;;;;;;;4.80;2.28;;;;;;;;;;5027698;28;20473;-78
2023/07/27 13:36:35;;;;;;;2.67;1.70;;;;;;;;;;5034170;28;20025;-78
2023/07/27 13:39:00;;;;;;;2.83;2.03;;;;;;;;;;5033940;28;20082;-78
2023/07/27 13:41:26;;;;;;;2.40;1.80;;;;;;;;;;5033807;28;20112;-78
2023/07/27 13:43:53;;;;;;;3.38;1.90;;;;;;;;;;5032526;28;20060;-77
2023/07/27 13:46:19;;;;;;;5.22;1.80;;;;;;;;;;5032194;28;20033;-77
2023/07/27 13:48:44;;;;;;;2.17;1.60;;;;;;;;;;5036154;28;20025;-77
2023/07/27 13:51:10;;;;;;;2.15;1.55;;;;;;;;;;5033761;28;20043;-77
2023/07/27 13:53:36;;;;;;;2.03;1.27;;;;;;;;;;5032490;28;20021;-77
2023/07/27 13:56:02;;;;;;;5.35;1.52;;;;;;;;;;5032190;28;20065;-77
2023/07/27 13:58:28;;;;;;;2.80;1.38;;;;;;;;;;5032586;28;20083;-78
2023/07/27 14:00:54;;;;;;;1.50;1.08;;;;;;;;;;5033528;28;20021;-78
2023/07/27 14:03:20;;;;;;;2.75;1.70;;;;;;;;;;5030002;28;20025;-77
2023/07/27 14:05:46;;;;;;;4.38;1.50;;;;;;;;;;5031435;28;20117;-77
2023/07/27 14:08:11;;;;;;;2.67;1.40;;;;;;;;;;5032361;28;20075;-78
2023/07/27 14:10:37;;;;;;;1.48;1.10;;;;;;;;;;5032003;28;20033;-78
2023/07/27 14:13:04;;;;;;;2.53;1.15;;;;;;;;;;5033768;28;20536;-77
2023/07/27 14:15:30;;;;;;;3.55;1.30;;;;;;;;;;5031937;28;20028;-77
2023/07/27 14:17:56;;;;;;;4.43;1.50;;;;;;;;;;5033250;28;20026;-78
2023/07/27 14:20:21;;;;;;;2.25;1.25;;;;;;;;;;5033361;28;20013;-78
2023/07/27 14:22:46;;;;;;;2.10;1.27;;;;;;;;;;5031615;28;20063;-78
2023/07/27 14:25:12;;;;;;;2.50;1.50;;;;;;;;;;5015484;28;20025;-77
2023/07/27 14:27:37;;;;;;;2.50;1.60;;;;;;;;;;5031605;28;20025;-78
2023/07/27 14:30:03;;;;;;;3.85;1.75;;;;;;;;;;5032966;28;20033;-77
2023/07/27 14:32:29;;;;;;;4.00;1.77;;;;;;;;;;5026303;28;20417;-78
2023/07/27 14:34:54;;;;;;;3.33;1.27;;;;;;;;;;5031603;28;20474;-77
2023/07/27 14:37:21;;;;;;;2.10;1.38;;;;;;;;;;5032666;28;20053;-78
2023/07/27 14:39:47;;;;;;;2.58;1.48;;;;;;;;;;5031746;28;20070;-78
2023/07/27 14:42:12;;;;;;;4.20;1.50;;;;;;;;;;5032821;28;20117;-77